Time;durP1;ratioP1;P1;durP2;ratioP2;P2;SDS_P1;SDS_P2;PMS_P1;PMS_P2;Temp;Humidity;BMP_temperature;BMP_pressure;BME280_temperature;BME280_humidity;BME280_pressure;Samples;Min_cycle;Max_cycle;Signal;HPM_P1;HPM_P2
2022/12/10 00:01:34;;;;;;;116.95;69.85;;;12.40;99.90;;;;;;4950734;29;20039;-77
2022/12/10 00:04:05;;;;;;;95.40;55.55;;;12.40;99.90;;;;;;4935296;29;20059;-79
2022/12/10 00:06:34;;;;;;;98.40;57.42;;;12.30;99.90;;;;;;4952208;29;20032;-77
2022/12/10 00:09:03;;;;;;;102.00;61.88;;;12.30;99.90;;;;;;4950609;28;20551;-76
2022/12/10 00:11:30;;;;;;;103.07;59.33;;;12.20;99.90;;;;;;4952229;29;20043;-76
2022/12/10 00:13:59;;;;;;;122.18;73.05;;;12.10;99.90;;;;;;4952414;29;20118;-79
2022/12/10 00:16:30;;;;;;;121.72;70.78;;;12.10;99.90;;;;;;4951296;29;20086;-79
2022/12/10 00:18:58;;;;;;;115.75;66.25;;;12.00;99.90;;;;;;4949374;28;20523;-80
2022/12/10 00:21:29;;;;;;;100.43;60.72;;;11.90;99.90;;;;;;4951568;29;20058;-79
2022/12/10 00:23:58;;;;;;;97.35;59.38;;;11.90;99.90;;;;;;4951561;29;20083;-79
2022/12/10 00:26:28;;;;;;;100.95;58.05;;;12.00;99.90;;;;;;4949992;29;20079;-79
2022/12/10 00:28:56;;;;;;;97.10;57.63;;;12.10;99.90;;;;;;4950483;28;20054;-78
2022/12/10 00:31:25;;;;;;;95.25;54.88;;;12.10;99.90;;;;;;4958764;28;20494;-76
2022/12/10 00:33:55;;;;;;;78.97;45.53;;;12.20;99.90;;;;;;4933997;29;20510;-79
2022/12/10 00:36:24;;;;;;;86.35;49.85;;;12.20;99.90;;;;;;4951665;29;20042;-78
2022/12/10 00:38:56;;;;;;;102.43;61.90;;;12.20;99.90;;;;;;4950913;28;20042;-80
2022/12/10 00:41:23;;;;;;;130.43;79.18;;;12.20;99.90;;;;;;4951492;29;20058;-77
2022/12/10 00:43:51;;;;;;;130.38;81.78;;;12.10;99.90;;;;;;4951845;29;20051;-78
2022/12/10 00:46:19;;;;;;;120.13;75.78;;;11.90;99.90;;;;;;4952054;29;20047;-77
2022/12/10 00:48:47;;;;;;;130.68;80.88;;;11.80;99.90;;;;;;4950827;28;20048;-78
2022/12/10 00:51:18;;;;;;;131.68;81.45;;;11.70;99.90;;;;;;4936327;29;20574;-78
2022/12/10 00:53:46;;;;;;;119.50;72.07;;;11.60;99.90;;;;;;4934138;29;20118;-77
2022/12/10 00:56:16;;;;;;;76.13;45.88;;;11.60;99.90;;;;;;4951868;29;20043;-79
2022/12/10 00:58:43;;;;;;;85.65;50.95;;;11.60;99.90;;;;;;4950781;28;20049;-79
2022/12/10 01:01:13;;;;;;;96.55;56.15;;;11.60;99.90;;;;;;4951498;29;20063;-79
2022/12/10 01:03:41;;;;;;;105.18;63.20;;;11.60;99.90;;;;;;4933390;29;20097;-77
2022/12/10 01:06:10;;;;;;;99.90;59.63;;;11.70;99.90;;;;;;4948551;29;20039;-78
2022/12/10 01:08:38;;;;;;;109.53;64.05;;;11.60;99.90;;;;;;4956416;28;20146;-76
2022/12/10 01:11:06;;;;;;;106.85;62.08;;;11.50;99.90;;;;;;4934373;29;20054;-76
2022/12/10 01:13:35;;;;;;;106.78;61.55;;;11.40;99.90;;;;;;4951600;29;20051;-78
2022/12/10 01:16:03;;;;;;;105.53;61.72;;;11.40;99.90;;;;;;4951480;29;20055;-77
2022/12/10 01:18:30;;;;;;;97.72;56.35;;;11.30;99.90;;;;;;4933399;29;20051;-77
2022/12/10 01:21:03;;;;;;;89.60;53.60;;;11.30;99.90;;;;;;4950713;29;20123;-78
2022/12/10 01:23:33;;;;;;;96.28;54.78;;;11.20;99.90;;;;;;4928836;29;20053;-77
2022/12/10 01:26:02;;;;;;;84.63;50.33;;;11.20;99.90;;;;;;4950113;29;20137;-78
2022/12/10 01:28:31;;;;;;;78.65;48.22;;;11.20;99.90;;;;;;4949283;28;20042;-79
2022/12/10 01:31:03;;;;;;;71.10;41.53;;;11.20;99.90;;;;;;4952685;28;20050;-78
2022/12/10 01:33:32;;;;;;;73.22;41.67;;;11.20;99.90;;;;;;4954233;29;20066;-78
2022/12/10 01:36:03;;;;;;;75.75;44.67;;;11.20;99.90;;;;;;4953481;29;20039;-78
2022/12/10 01:38:31;;;;;;;65.72;37.20;;;11.20;99.90;;;;;;4953409;28;20555;-78
2022/12/10 01:40:58;;;;;;;64.03;38.20;;;11.20;99.90;;;;;;4937090;29;20050;-77
2022/12/10 01:43:26;;;;;;;59.95;34.20;;;11.20;99.90;;;;;;4954820;29;20082;-78
2022/12/10 01:45:54;;;;;;;65.07;37.72;;;11.20;99.90;;;;;;4938390;29;20051;-77
2022/12/10 01:48:23;;;;;;;63.08;37.53;;;11.20;99.90;;;;;;4955609;28;20078;-77
2022/12/10 01:50:52;;;;;;;61.55;34.20;;;11.20;99.90;;;;;;4936736;29;20055;-76
2022/12/10 01:53:19;;;;;;;48.70;26.60;;;11.10;99.90;;;;;;4956763;29;20039;-78
2022/12/10 01:55:49;;;;;;;62.13;37.22;;;11.20;99.90;;;;;;4954533;29;20035;-79
2022/12/10 01:58:19;;;;;;;52.25;28.77;;;11.10;99.90;;;;;;4958126;28;20047;-79
2022/12/10 02:01:05;;;;;;;54.63;29.88;;;11.00;99.90;;;;;;4963371;29;20050;-79
2022/12/10 02:03:45;;;;;;;54.92;30.75;;;11.00;99.90;;;;;;4950182;29;20074;-78
2022/12/10 02:06:24;;;;;;;92.60;54.33;;;11.00;99.90;;;;;;4944007;29;20039;-76
2022/12/10 02:08:59;;;;;;;66.35;39.10;;;11.00;99.90;;;;;;4954944;28;20043;-78
2022/12/10 02:11:33;;;;;;;58.40;37.08;;;11.10;99.90;;;;;;4939655;29;20054;-77
2022/12/10 02:14:04;;;;;;;63.22;35.10;;;11.00;99.90;;;;;;4955384;29;20039;-79
2022/12/10 02:16:35;;;;;;;60.33;33.42;;;11.00;99.90;;;;;;4952997;29;20090;-78
2022/12/10 02:19:13;;;;;;;60.05;34.58;;;11.10;99.90;;;;;;4935855;29;20074;-80
2022/12/10 02:21:44;;;;;;;65.35;36.83;;;11.10;99.90;;;;;;4938092;29;20050;-78
2022/12/10 02:24:17;;;;;;;50.78;31.23;;;11.10;99.90;;;;;;4935984;29;20130;-77
2022/12/10 02:26:51;;;;;;;59.88;32.05;;;11.10;99.90;;;;;;4958664;28;20054;-78
2022/12/10 02:29:22;;;;;;;62.83;34.17;;;11.20;99.90;;;;;;4936442;29;20051;-78
2022/12/10 02:31:53;;;;;;;56.95;32.60;;;11.20;99.90;;;;;;4952120;29;20048;-78
2022/12/10 02:34:24;;;;;;;60.50;33.40;;;11.10;99.90;;;;;;4935472;29;20036;-78
2022/12/10 02:36:55;;;;;;;51.55;29.00;;;11.00;99.90;;;;;;4935716;29;20040;-78
2022/12/10 02:39:28;;;;;;;51.92;26.60;;;11.00;99.90;;;;;;4953449;28;20472;-78
2022/12/10 02:42:01;;;;;;;43.65;24.05;;;11.10;99.90;;;;;;4935802;29;20047;-77
2022/12/10 02:44:34;;;;;;;29.02;15.90;;;11.00;99.90;;;;;;4936658;29;20062;-78
2022/12/10 02:47:04;;;;;;;35.95;19.35;;;11.00;99.90;;;;;;4936683;28;20094;-79
2022/12/10 02:49:38;;;;;;;35.30;19.35;;;11.10;99.90;;;;;;4931779;29;20153;-78
2022/12/10 02:52:09;;;;;;;33.97;20.05;;;11.10;99.90;;;;;;4951326;29;20455;-78
2022/12/10 02:54:42;;;;;;;39.60;21.15;;;11.10;99.90;;;;;;4936547;29;20053;-78
2022/12/10 02:57:23;;;;;;;46.33;25.95;;;11.10;99.90;;;;;;4936767;28;20451;-79
2022/12/10 03:00:04;;;;;;;50.83;28.52;;;11.10;99.90;;;;;;4953073;29;20055;-77
2022/12/10 03:02:51;;;;;;;55.75;33.20;;;11.10;99.90;;;;;;4934231;29;20094;-78
2022/12/10 03:05:25;;;;;;;44.78;23.42;;;11.00;99.90;;;;;;4936378;29;20491;-77
2022/12/10 03:07:59;;;;;;;41.25;23.45;;;11.00;99.90;;;;;;4953691;28;20140;-77
2022/12/10 03:10:33;;;;;;;48.22;25.63;;;11.00;99.90;;;;;;4953194;29;21009;-78
2022/12/10 03:13:04;;;;;;;42.95;24.65;;;11.00;99.90;;;;;;4953345;29;20047;-77
2022/12/10 03:15:36;;;;;;;40.20;24.70;;;11.00;99.90;;;;;;4953629;29;20110;-76
2022/12/10 03:18:05;;;;;;;32.63;18.65;;;11.00;99.90;;;;;;4952287;28;20035;-78
2022/12/10 03:20:35;;;;;;;31.02;19.25;;;10.90;99.90;;;;;;4952293;29;20047;-78
2022/12/10 03:23:04;;;;;;;43.00;23.58;;;10.90;99.90;;;;;;4953459;29;20065;-78
2022/12/10 03:25:33;;;;;;;45.55;25.10;;;10.80;99.90;;;;;;4954596;29;20042;-77
2022/12/10 03:28:01;;;;;;;39.38;24.38;;;10.80;99.90;;;;;;4954895;28;20595;-78
2022/12/10 03:30:33;;;;;;;52.65;27.55;;;10.80;99.90;;;;;;4951215;29;20553;-77
2022/12/10 03:33:02;;;;;;;54.58;33.05;;;10.80;99.90;;;;;;4952825;29;20403;-78
2022/12/10 03:35:30;;;;;;;47.55;27.02;;;10.90;99.90;;;;;;4952062;29;20050;-78
2022/12/10 03:37:57;;;;;;;52.22;28.38;;;10.80;99.90;;;;;;4951435;28;20110;-77
2022/12/10 03:40:26;;;;;;;53.42;30.45;;;10.80;99.90;;;;;;4952309;29;20447;-78
2022/12/10 03:42:54;;;;;;;54.90;27.70;;;10.80;99.90;;;;;;4952771;29;20043;-76
2022/12/10 03:45:21;;;;;;;50.92;30.50;;;10.90;99.90;;;;;;4952893;29;20046;-79
2022/12/10 03:47:50;;;;;;;52.35;28.00;;;10.90;99.90;;;;;;4951188;28;20039;-78
2022/12/10 03:50:17;;;;;;;46.03;26.05;;;10.90;99.90;;;;;;4952093;29;20134;-78
2022/12/10 03:52:45;;;;;;;46.53;26.00;;;10.80;99.90;;;;;;4934768;29;20047;-79
2022/12/10 03:55:12;;;;;;;40.13;24.02;;;10.70;99.90;;;;;;4934086;29;20102;-79
2022/12/10 03:57:39;;;;;;;40.80;24.02;;;10.70;99.90;;;;;;4951179;28;20047;-77
2022/12/10 04:00:08;;;;;;;48.30;27.23;;;10.70;99.90;;;;;;4951712;29;20035;-76
2022/12/10 04:02:42;;;;;;;41.47;23.87;;;10.60;99.90;;;;;;4952680;29;20047;-78
2022/12/10 04:05:11;;;;;;;39.92;24.15;;;10.60;99.90;;;;;;4950697;29;20054;-76
2022/12/10 04:07:38;;;;;;;36.05;21.23;;;10.60;99.90;;;;;;4952289;28;20062;-78
2022/12/10 04:10:06;;;;;;;37.88;21.20;;;10.60;99.90;;;;;;4951521;29;20035;-79
2022/12/10 04:12:34;;;;;;;40.30;23.20;;;10.60;99.90;;;;;;4953085;29;20429;-76
2022/12/10 04:17:46;;;;;;;44.17;26.15;;;10.50;99.90;;;;;;4952231;28;20133;-78
2022/12/10 04:28:24;;;;;;;46.97;28.48;;;10.60;99.90;;;;;;4951719;28;20082;-77
2022/12/10 04:30:51;;;;;;;48.00;24.70;;;10.60;99.90;;;;;;4952011;29;20035;-79
2022/12/10 04:33:19;;;;;;;46.85;27.13;;;10.70;99.90;;;;;;4951650;29;20519;-78
2022/12/10 04:35:48;;;;;;;41.08;24.35;;;10.70;99.90;;;;;;4951568;29;20051;-78
2022/12/10 04:38:15;;;;;;;37.72;23.05;;;10.70;99.90;;;;;;4952127;28;20087;-78
2022/12/10 04:40:42;;;;;;;45.05;26.63;;;10.70;99.90;;;;;;4950110;29;20047;-78
2022/12/10 04:43:10;;;;;;;54.33;30.15;;;10.70;99.90;;;;;;4951081;29;20038;-79
2022/12/10 04:45:37;;;;;;;43.85;25.08;;;10.70;99.90;;;;;;4955539;29;20078;-77
2022/12/10 04:48:06;;;;;;;40.35;23.85;;;10.70;99.90;;;;;;4953578;28;20051;-80
2022/12/10 04:50:34;;;;;;;42.17;26.15;;;10.70;99.90;;;;;;4949771;29;20118;-77
2022/12/10 04:53:03;;;;;;;42.10;24.27;;;10.70;99.90;;;;;;4951522;29;20039;-77
2022/12/10 04:55:30;;;;;;;45.42;25.45;;;10.70;99.90;;;;;;4951608;29;20114;-78
2022/12/10 04:57:58;;;;;;;39.40;22.58;;;10.70;99.90;;;;;;4949694;28;20047;-77
2022/12/10 05:00:25;;;;;;;40.75;23.67;;;10.70;99.90;;;;;;4950169;29;20040;-78
2022/12/10 05:02:53;;;;;;;41.28;22.23;;;10.70;99.90;;;;;;4948371;29;20073;-79
2022/12/10 05:05:20;;;;;;;34.63;20.60;;;10.70;99.90;;;;;;4950736;29;20043;-79
2022/12/10 05:07:47;;;;;;;34.03;19.92;;;10.70;99.90;;;;;;4951533;28;20124;-77
2022/12/10 05:10:16;;;;;;;37.63;21.85;;;10.80;99.90;;;;;;4948903;29;20054;-78
2022/12/10 05:12:43;;;;;;;47.15;24.90;;;10.90;99.90;;;;;;4950352;29;20043;-78
2022/12/10 05:15:12;;;;;;;52.40;25.77;;;10.90;99.90;;;;;;4952648;29;20043;-78
2022/12/10 05:17:39;;;;;;;54.33;29.05;;;10.90;99.90;;;;;;4953215;28;20162;-78
2022/12/10 05:20:08;;;;;;;54.35;29.02;;;10.90;99.90;;;;;;4953120;29;20667;-77
2022/12/10 05:25:21;;;;;;;61.35;33.42;;;11.00;99.90;;;;;;4950573;29;20505;-78
2022/12/10 05:27:49;;;;;;;59.95;32.70;;;11.00;99.90;;;;;;4949494;28;20126;-79
2022/12/10 05:30:16;;;;;;;71.55;37.22;;;11.00;99.90;;;;;;4950220;29;20582;-77
2022/12/10 05:32:43;;;;;;;64.13;35.75;;;11.00;99.90;;;;;;4954083;29;20161;-79
2022/12/10 05:35:11;;;;;;;55.78;32.17;;;10.90;99.90;;;;;;4951914;29;20685;-78
2022/12/10 05:37:38;;;;;;;59.45;36.22;;;10.90;99.90;;;;;;4952414;28;20051;-78
2022/12/10 05:40:07;;;;;;;57.10;32.70;;;10.90;99.90;;;;;;4953501;29;20492;-77
2022/12/10 05:42:36;;;;;;;52.13;29.10;;;11.00;99.90;;;;;;4955089;29;20038;-77
2022/12/10 05:45:03;;;;;;;53.67;30.60;;;11.00;99.90;;;;;;4935768;29;20059;-76
2022/12/10 05:47:31;;;;;;;51.00;29.85;;;11.00;99.90;;;;;;4951289;28;20082;-80
2022/12/10 05:49:58;;;;;;;50.92;29.63;;;11.00;99.90;;;;;;4950719;29;20102;-79
2022/12/10 05:52:25;;;;;;;34.08;19.60;;;11.00;99.90;;;;;;4949234;29;20043;-78
2022/12/10 05:54:53;;;;;;;51.90;28.80;;;11.00;99.90;;;;;;4933173;29;20069;-78
2022/12/10 05:57:20;;;;;;;39.33;24.63;;;11.00;99.90;;;;;;4951285;28;20050;-76
2022/12/10 05:59:49;;;;;;;68.88;44.63;;;11.10;99.90;;;;;;4949390;29;20389;-76
2022/12/10 06:02:18;;;;;;;60.40;38.72;;;11.10;99.90;;;;;;4949686;29;20140;-76
2022/12/10 06:04:46;;;;;;;68.50;37.08;;;11.10;99.90;;;;;;4950777;29;20036;-78
2022/12/10 06:07:13;;;;;;;67.05;41.85;;;11.10;99.90;;;;;;4955767;28;20043;-77
2022/12/10 06:09:40;;;;;;;64.60;43.10;;;11.10;99.90;;;;;;4951359;29;20750;-77
2022/12/10 06:12:08;;;;;;;61.00;39.97;;;11.10;99.90;;;;;;4949646;29;20094;-79
2022/12/10 06:14:35;;;;;;;67.65;41.08;;;11.10;99.90;;;;;;4950637;29;20400;-78
2022/12/10 06:17:04;;;;;;;67.50;39.60;;;11.10;99.90;;;;;;4952142;28;20047;-79
2022/12/10 06:19:31;;;;;;;62.67;37.47;;;11.10;99.90;;;;;;4953528;29;20043;-77
2022/12/10 06:21:59;;;;;;;55.50;34.25;;;11.10;99.90;;;;;;4951381;29;20047;-78
2022/12/10 06:24:26;;;;;;;58.53;36.20;;;11.10;99.90;;;;;;4953861;29;20042;-76
2022/12/10 06:26:54;;;;;;;64.10;36.90;;;11.10;99.90;;;;;;4950469;28;20047;-77
2022/12/10 06:29:21;;;;;;;59.50;37.65;;;11.10;99.90;;;;;;4952458;29;20411;-78
2022/12/10 06:31:48;;;;;;;68.50;36.63;;;11.20;99.90;;;;;;4952235;29;20130;-77
2022/12/10 06:34:17;;;;;;;60.53;39.65;;;11.20;99.90;;;;;;4953566;29;20047;-77
2022/12/10 06:36:44;;;;;;;73.10;43.70;;;11.20;99.90;;;;;;4953824;28;20491;-78
2022/12/10 06:39:12;;;;;;;78.97;47.42;;;11.30;99.90;;;;;;4952062;29;20036;-76
2022/12/10 06:41:43;;;;;;;78.47;45.47;;;11.30;99.90;;;;;;4952294;29;20055;-78
2022/12/10 06:44:11;;;;;;;83.75;49.17;;;11.30;99.90;;;;;;4953753;29;20075;-77
2022/12/10 06:46:38;;;;;;;78.40;50.67;;;11.30;99.90;;;;;;4953539;28;20043;-77
2022/12/10 06:49:05;;;;;;;91.50;54.28;;;11.30;99.90;;;;;;4952001;29;20039;-78
2022/12/10 06:51:34;;;;;;;96.72;57.75;;;11.40;99.90;;;;;;4953992;29;20123;-78
2022/12/10 06:54:01;;;;;;;95.30;58.63;;;11.40;99.90;;;;;;4952801;29;20047;-77
2022/12/10 06:56:29;;;;;;;90.55;53.92;;;11.40;99.90;;;;;;4954368;28;20649;-78
2022/12/10 06:58:56;;;;;;;65.72;39.67;;;11.50;99.90;;;;;;4951008;29;20036;-79
2022/12/10 07:01:26;;;;;;;77.53;39.40;;;11.60;99.90;;;;;;4953988;29;20043;-78
2022/12/10 07:03:55;;;;;;;74.85;45.10;;;11.60;99.90;;;;;;4951662;29;20912;-79
2022/12/10 07:06:23;;;;;;;70.72;43.80;;;11.60;99.90;;;;;;4952532;28;20086;-79
2022/12/10 07:08:53;;;;;;;81.13;50.00;;;11.70;99.90;;;;;;4953151;29;20047;-77
2022/12/10 07:11:22;;;;;;;84.53;53.08;;;11.70;99.90;;;;;;4953455;29;20041;-77
2022/12/10 07:13:50;;;;;;;92.57;58.13;;;11.70;99.90;;;;;;4952037;29;20095;-79
2022/12/10 07:16:20;;;;;;;94.40;62.47;;;11.80;99.90;;;;;;4953073;28;20137;-76
2022/12/10 07:18:48;;;;;;;78.22;49.45;;;11.80;99.90;;;;;;4935683;29;20062;-79
2022/12/10 07:21:16;;;;;;;91.50;57.08;;;11.80;99.90;;;;;;4953480;29;20475;-77
2022/12/10 07:23:44;;;;;;;97.95;62.60;;;11.80;99.90;;;;;;4952300;29;20120;-77
2022/12/10 07:26:13;;;;;;;63.63;39.95;;;11.80;99.90;;;;;;4962129;28;20106;-76
2022/12/10 07:28:40;;;;;;;83.43;52.28;;;11.90;99.90;;;;;;4950956;28;20054;-77
2022/12/10 07:31:09;;;;;;;58.03;37.08;;;12.00;99.90;;;;;;4952354;29;20051;-75
2022/12/10 07:33:37;;;;;;;83.68;52.88;;;12.10;99.90;;;;;;4949368;29;20082;-78
2022/12/10 07:36:06;;;;;;;73.80;46.97;;;12.20;99.90;;;;;;4951859;28;20055;-78
2022/12/10 07:38:33;;;;;;;95.68;56.38;;;12.30;99.90;;;;;;4948503;29;20495;-79
2022/12/10 07:41:03;;;;;;;106.82;56.50;;;12.40;99.90;;;;;;4952957;29;20047;-78
2022/12/10 07:43:34;;;;;;;176.63;98.25;;;12.50;99.90;;;;;;4949555;29;20129;-78
2022/12/10 07:46:05;;;;;;;162.35;91.10;;;12.60;99.90;;;;;;4952319;28;20035;-76
2022/12/10 07:48:33;;;;;;;164.80;94.50;;;12.70;99.90;;;;;;4932464;29;20411;-75
2022/12/10 07:51:01;;;;;;;169.93;103.90;;;12.70;99.90;;;;;;4951423;29;20047;-80
2022/12/10 07:53:29;;;;;;;161.05;91.70;;;12.70;99.90;;;;;;4951058;29;20090;-78
2022/12/10 07:55:57;;;;;;;145.90;87.22;;;12.90;99.90;;;;;;4951615;28;20067;-77
2022/12/10 07:58:24;;;;;;;136.98;80.97;;;13.10;99.90;;;;;;4952575;29;20434;-78
2022/12/10 08:00:53;;;;;;;133.73;76.13;;;13.20;99.90;;;;;;4949267;29;20399;-77
2022/12/10 08:03:20;;;;;;;118.47;67.65;;;13.30;99.90;;;;;;4950997;29;20047;-79
2022/12/10 08:05:47;;;;;;;111.90;66.32;;;13.60;99.90;;;;;;4934738;29;20047;-76
2022/12/10 08:08:15;;;;;;;91.68;52.90;;;13.70;99.90;;;;;;4950222;29;20130;-80
2022/12/10 08:10:42;;;;;;;75.45;45.65;;;13.90;99.90;;;;;;4958468;28;20074;-77
2022/12/10 08:13:10;;;;;;;79.35;46.00;;;14.00;99.90;;;;;;4951253;29;20515;-83
2022/12/10 08:15:37;;;;;;;60.97;37.38;;;14.10;99.90;;;;;;4949481;29;20507;-77
2022/12/10 08:18:06;;;;;;;57.17;32.25;;;14.20;99.90;;;;;;4966845;23;20055;-79
2022/12/10 08:20:33;;;;;;;39.20;23.15;;;14.30;99.90;;;;;;4956636;29;20067;-83
2022/12/10 08:23:00;;;;;;;27.42;15.50;;;14.40;99.90;;;;;;4957305;28;20043;-82
2022/12/10 08:25:28;;;;;;;26.25;14.93;;;14.40;99.90;;;;;;4958468;28;20122;-82
2022/12/10 08:27:56;;;;;;;28.13;15.70;;;14.40;99.90;;;;;;4956003;29;20043;-83
2022/12/10 08:30:23;;;;;;;22.55;13.50;;;14.60;99.90;;;;;;4954013;29;20039;-80
2022/12/10 08:32:50;;;;;;;21.35;11.73;;;14.60;99.90;;;;;;4957227;28;20035;-83
2022/12/10 08:35:19;;;;;;;20.70;11.35;;;14.70;99.90;;;;;;4956295;28;20078;-82
2022/12/10 08:37:46;;;;;;;18.25;10.90;;;14.70;99.90;;;;;;4953282;29;20526;-80
2022/12/10 08:40:14;;;;;;;16.10;9.85;;;14.70;99.90;;;;;;4967927;28;20066;-79
2022/12/10 08:42:41;;;;;;;17.20;7.85;;;14.90;99.90;;;;;;4966472;29;20035;-81
2022/12/10 08:45:09;;;;;;;15.55;8.82;;;14.80;99.90;;;;;;4951468;29;20055;-79
2022/12/10 08:47:38;;;;;;;20.83;9.70;;;14.70;99.90;;;;;;4949849;29;20116;-80
2022/12/10 08:50:06;;;;;;;23.88;13.93;;;14.80;99.90;;;;;;4954272;29;20098;-77
2022/12/10 08:52:35;;;;;;;17.38;9.20;;;14.80;99.90;;;;;;4940005;29;20047;-80
2022/12/10 08:55:02;;;;;;;19.27;10.77;;;14.80;99.90;;;;;;4959734;28;20067;-78
2022/12/10 08:57:30;;;;;;;16.08;9.30;;;14.60;99.90;;;;;;4953970;28;20051;-77
2022/12/10 08:59:57;;;;;;;21.25;9.32;;;14.60;99.90;;;;;;4959468;29;20038;-78
2022/12/10 09:02:24;;;;;;;12.10;5.65;;;14.50;99.90;;;;;;4952989;29;20094;-78
2022/12/10 09:04:52;;;;;;;13.30;4.80;;;14.50;99.90;;;;;;4952691;28;20146;-78
2022/12/10 09:07:20;;;;;;;11.38;4.35;;;14.60;99.90;;;;;;4957210;29;20045;-79
2022/12/10 09:09:50;;;;;;;11.82;5.40;;;14.50;99.90;;;;;;4951268;29;20135;-79
2022/12/10 09:12:18;;;;;;;12.38;5.60;;;14.50;99.90;;;;;;4959001;29;20039;-80
2022/12/10 09:14:46;;;;;;;11.25;5.70;;;14.60;99.90;;;;;;4952708;29;20074;-78
2022/12/10 09:17:13;;;;;;;10.55;6.68;;;14.70;99.90;;;;;;4953684;29;20055;-79
2022/12/10 09:19:41;;;;;;;14.70;7.45;;;14.80;99.90;;;;;;4953952;29;20035;-81
2022/12/10 09:22:08;;;;;;;13.85;7.90;;;14.80;99.90;;;;;;4972111;29;20043;-79
2022/12/10 09:24:35;;;;;;;16.80;9.25;;;14.70;99.90;;;;;;4961141;28;20051;-77
2022/12/10 09:27:05;;;;;;;14.63;7.82;;;14.70;99.90;;;;;;4954290;29;20459;-80
2022/12/10 09:29:32;;;;;;;14.35;7.45;;;14.70;99.90;;;;;;4953162;29;20047;-79
2022/12/10 09:32:00;;;;;;;14.25;7.40;;;14.80;99.90;;;;;;4954585;29;20058;-78
2022/12/10 09:34:27;;;;;;;14.40;8.32;;;14.70;99.90;;;;;;4954846;29;20042;-80
2022/12/10 09:36:55;;;;;;;19.25;10.93;;;14.80;99.90;;;;;;4955822;29;20043;-79
2022/12/10 09:39:22;;;;;;;19.48;11.18;;;14.70;99.90;;;;;;4955787;29;20381;-78
2022/12/10 09:42:05;;;;;;;26.33;13.23;;;14.70;99.90;;;;;;4952963;29;20451;-76
2022/12/10 09:44:45;;;;;;;31.25;16.05;;;14.80;99.90;;;;;;4951562;29;20047;-77
2022/12/10 09:47:13;;;;;;;24.88;15.40;;;14.80;99.90;;;;;;4957953;29;20054;-79
2022/12/10 09:49:54;;;;;;;25.60;14.75;;;14.90;99.90;;;;;;4954907;29;20070;-77
2022/12/10 09:52:25;;;;;;;27.17;15.52;;;15.10;99.90;;;;;;4955613;29;20047;-79
2022/12/10 09:54:57;;;;;;;14.73;8.13;;;15.40;99.90;;;;;;4955438;28;20102;-79
2022/12/10 09:57:30;;;;;;;24.50;13.77;;;15.50;99.90;;;;;;4957622;29;20051;-79
2022/12/10 10:00:02;;;;;;;29.70;14.90;;;15.80;99.90;;;;;;4956853;29;20097;-77
2022/12/10 10:02:39;;;;;;;14.30;8.57;;;15.80;99.90;;;;;;4958738;29;20094;-78
2022/12/10 10:05:13;;;;;;;10.68;5.65;;;15.80;99.90;;;;;;4939875;29;20040;-79
2022/12/10 10:07:45;;;;;;;8.85;4.07;;;15.90;99.90;;;;;;4956141;29;20047;-78
2022/12/10 10:10:24;;;;;;;9.52;2.58;;;15.90;99.90;;;;;;4969173;29;20047;-78
2022/12/10 10:12:55;;;;;;;7.60;3.42;;;15.70;99.90;;;;;;4956868;29;20075;-78
2022/12/10 10:15:31;;;;;;;9.48;3.70;;;15.80;99.90;;;;;;4970456;28;20385;-80
2022/12/10 10:18:03;;;;;;;8.20;3.42;;;15.80;99.90;;;;;;4960503;29;20051;-77
2022/12/10 10:20:31;;;;;;;7.00;2.67;;;15.90;99.90;;;;;;4959287;29;20427;-77
2022/12/10 10:23:05;;;;;;;6.45;2.88;;;16.00;99.90;;;;;;4958962;29;20102;-78
2022/12/10 10:25:39;;;;;;;11.30;3.80;;;16.00;99.90;;;;;;4941557;29;20051;-78
2022/12/10 10:28:07;;;;;;;10.50;3.80;;;16.00;99.90;;;;;;4957202;29;20047;-76
2022/12/10 10:30:36;;;;;;;8.00;4.20;;;16.30;99.90;;;;;;4956279;29;20570;-78
2022/12/10 10:33:09;;;;;;;8.98;4.30;;;16.70;1.00;;;;;;4953968;29;20043;-76
2022/12/10 10:35:44;;;;;;;8.13;3.25;;;16.90;99.90;;;;;;4955688;29;20118;-79
2022/12/10 10:38:20;;;;;;;7.77;4.00;;;16.80;1.00;;;;;;4955296;29;20051;-79
2022/12/10 10:40:53;;;;;;;9.55;4.15;;;16.70;99.90;;;;;;4954010;29;20086;-80
2022/12/10 10:43:25;;;;;;;9.43;3.78;;;16.70;99.90;;;;;;4937895;29;20138;-79
2022/12/10 10:46:01;;;;;;;10.50;4.20;;;16.60;99.90;;;;;;4955086;29;20590;-78
2022/12/10 10:48:30;;;;;;;12.10;4.10;;;16.60;99.90;;;;;;4953840;29;20043;-80
2022/12/10 10:53:59;;;;;;;11.35;4.72;;;16.70;1.00;;;;;;4957653;28;20471;-78
2022/12/10 10:56:29;;;;;;;7.65;3.40;;;16.90;99.90;;;;;;4957585;29;20051;-79
2022/12/10 10:58:59;;;;;;;12.90;4.43;;;16.90;1.00;;;;;;4957311;29;20479;-80
2022/12/10 11:01:45;;;;;;;13.95;4.88;;;16.90;1.00;;;;;;4955687;29;20411;-79
2022/12/10 11:04:15;;;;;;;15.60;6.50;;;16.90;1.00;;;;;;4951597;29;20043;-77
2022/12/10 11:06:43;;;;;;;14.48;5.32;;;17.00;1.00;;;;;;4954976;29;20054;-78
2022/12/10 11:09:20;;;;;;;17.30;6.07;;;17.00;99.90;;;;;;4958625;29;20051;-78
2022/12/10 11:11:52;;;;;;;13.63;6.85;;;17.10;99.90;;;;;;4955830;29;20043;-78
2022/12/10 11:14:25;;;;;;;18.92;7.88;;;17.20;99.90;;;;;;4937824;29;20055;-78
2022/12/10 11:17:02;;;;;;;15.45;7.68;;;17.20;1.00;;;;;;4956789;29;20063;-76
2022/12/10 11:19:29;;;;;;;21.77;8.68;;;17.30;1.00;;;;;;4942661;29;20046;-76
2022/12/10 11:22:17;;;;;;;20.13;8.57;;;17.30;1.00;;;;;;4957771;29;20416;-78
2022/12/10 11:24:47;;;;;;;14.52;5.05;;;17.20;1.00;;;;;;4959054;29;20047;-78
2022/12/10 11:27:20;;;;;;;11.80;4.45;;;17.20;1.00;;;;;;4958297;29;20077;-77
2022/12/10 11:29:57;;;;;;;15.50;7.00;;;17.20;1.00;;;;;;4956119;29;20098;-80
2022/12/10 11:32:48;;;;;;;13.32;5.18;;;17.20;1.00;;;;;;4937563;29;20110;-76
2022/12/10 11:35:23;;;;;;;15.13;5.57;;;17.40;99.90;;;;;;4940560;29;20047;-77
2022/12/10 11:38:00;;;;;;;21.85;7.47;;;17.40;99.90;;;;;;4935723;29;20057;-79
2022/12/10 11:40:45;;;;;;;20.40;7.03;;;17.50;99.90;;;;;;4953334;29;20051;-78
2022/12/10 11:43:34;;;;;;;22.05;7.07;;;17.40;99.90;;;;;;4935996;29;20054;-76
2022/12/10 11:46:13;;;;;;;17.60;6.15;;;17.40;99.90;;;;;;4952623;29;20047;-78
2022/12/10 11:48:59;;;;;;;24.40;8.57;;;17.40;1.00;;;;;;4952420;29;20051;-79
2022/12/10 11:51:34;;;;;;;26.38;11.75;;;17.40;99.90;;;;;;4955451;29;20039;-80
2022/12/10 11:54:26;;;;;;;17.20;7.80;;;17.50;99.90;;;;;;4945718;29;20361;-78
2022/12/10 11:57:04;;;;;;;18.23;6.30;;;17.60;1.00;;;;;;4951335;29;20059;-79
2022/12/10 11:59:38;;;;;;;15.07;6.47;;;17.60;1.00;;;;;;4952812;29;20071;-79
2022/12/10 12:02:32;;;;;;;18.58;6.43;;;17.40;1.00;;;;;;4974343;29;20054;-78
2022/12/10 12:05:25;;;;;;;21.33;6.68;;;17.30;99.90;;;;;;4969722;28;20054;-78
2022/12/10 12:08:01;;;;;;;14.23;6.07;;;17.50;1.00;;;;;;4941691;29;20082;-78
2022/12/10 12:10:44;;;;;;;19.63;5.90;;;17.60;1.00;;;;;;4954896;29;20094;-79
2022/12/10 12:13:16;;;;;;;17.05;5.97;;;17.60;1.00;;;;;;4954989;28;20043;-78
2022/12/10 12:15:48;;;;;;;18.58;5.30;;;17.50;1.00;;;;;;4955840;29;20051;-83
2022/12/10 12:18:21;;;;;;;21.58;6.43;;;17.60;1.00;;;;;;4958034;29;20059;-83
2022/12/10 12:20:55;;;;;;;26.52;9.00;;;17.60;1.00;;;;;;4939585;29;20055;-78
2022/12/10 12:23:29;;;;;;;20.50;7.45;;;17.60;1.00;;;;;;4956552;29;20414;-79
2022/12/10 12:26:01;;;;;;;19.83;8.02;;;17.50;1.00;;;;;;4939489;29;20054;-78
2022/12/10 12:28:36;;;;;;;23.83;8.57;;;17.60;1.00;;;;;;4955410;29;20039;-78
2022/12/10 12:31:07;;;;;;;30.08;12.60;;;17.70;1.00;;;;;;4954672;29;20035;-78
2022/12/10 12:33:44;;;;;;;28.40;10.48;;;17.70;1.00;;;;;;4956928;28;20050;-79
2022/12/10 12:36:18;;;;;;;24.52;9.00;;;17.70;99.90;;;;;;4955865;29;20055;-80
2022/12/10 12:38:54;;;;;;;21.70;7.90;;;17.80;99.90;;;;;;4955712;29;20054;-83
2022/12/10 12:41:25;;;;;;;;;;;17.90;99.90;;;;;;4949634;29;20043;-81
2022/12/10 12:43:59;;;;;;;22.20;7.55;;;17.90;99.90;;;;;;4949715;29;19922;-81
2022/12/10 12:46:38;;;;;;;26.42;7.35;;;17.80;99.90;;;;;;4964995;29;20051;-82
2022/12/10 12:49:15;;;;;;;20.23;7.50;;;17.80;1.00;;;;;;4962956;29;20053;-82
2022/12/10 12:51:51;;;;;;;19.83;6.78;;;17.80;1.00;;;;;;4959038;29;20818;-81
2022/12/10 12:54:19;;;;;;;18.33;7.38;;;17.70;1.00;;;;;;4960937;29;20047;-82
2022/12/10 12:57:00;;;;;;;17.13;6.18;;;17.60;1.00;;;;;;4962683;29;20114;-82
2022/12/10 12:59:43;;;;;;;19.02;8.10;;;17.50;1.00;;;;;;4963092;29;20048;-83
2022/12/10 13:02:23;;;;;;;22.85;7.10;;;17.50;1.00;;;;;;4964645;29;20043;-82
2022/12/10 13:04:54;;;;;;;22.63;7.60;;;17.40;1.00;;;;;;4968485;29;20047;-85